createdAt,value
2022-09-24T00:02:27.800Z,78.10
2022-09-24T00:04:56.145Z,78.21
2022-09-24T00:07:24.872Z,78.40
2022-09-24T00:09:53.029Z,78.46
2022-09-24T00:12:22.571Z,78.55
2022-09-24T00:14:50.822Z,78.58
2022-09-24T00:17:19.016Z,78.58
2022-09-24T00:19:47.198Z,78.56
2022-09-24T00:22:15.440Z,78.79
2022-09-24T00:25:01.250Z,78.65
2022-09-24T00:27:30.880Z,78.88
2022-09-24T00:29:59.372Z,78.90
2022-09-24T00:32:27.597Z,79.12
2022-09-24T00:34:55.846Z,79.19
2022-09-24T00:37:24.126Z,79.40
2022-09-24T00:39:52.293Z,79.33
2022-09-24T00:42:20.720Z,79.62
2022-09-24T00:44:56.168Z,79.62
2022-09-24T00:47:37.005Z,79.79
2022-09-24T00:50:20.320Z,79.87
2022-09-24T00:52:56.612Z,79.93
2022-09-24T00:55:26.076Z,80.19
2022-09-24T00:57:58.207Z,80.23
2022-09-24T01:00:27.899Z,80.04
2022-09-24T01:03:02.521Z,80.29
2022-09-24T01:05:31.081Z,80.39
2022-09-24T01:08:00.138Z,80.60
2022-09-24T01:10:51.782Z,80.63
2022-09-24T01:13:55.582Z,80.62
2022-09-24T01:16:37.425Z,80.57
2022-09-24T01:19:20.159Z,80.94
2022-09-24T01:21:55.267Z,81.12
2022-09-24T01:24:59.503Z,81.15
2022-09-24T01:27:52.297Z,81.25
2022-09-24T01:30:22.192Z,81.45
2022-09-24T01:32:55.737Z,81.54
2022-09-24T01:35:30.433Z,81.47
2022-09-24T01:38:03.156Z,81.57
2022-09-24T01:40:32.352Z,81.69
2022-09-24T01:43:03.229Z,81.83
2022-09-24T01:45:34.253Z,81.93
2022-09-24T01:48:03.241Z,82.08
2022-09-24T01:50:39.973Z,82.15
2022-09-24T01:53:17.003Z,82.23
2022-09-24T01:55:50.620Z,82.09
2022-09-24T01:58:24.509Z,82.06
2022-09-24T02:01:00.661Z,82.56
2022-09-24T02:03:34.505Z,82.56
2022-09-24T02:06:09.757Z,82.56
2022-09-24T02:08:42.647Z,82.57
2022-09-24T02:11:15.948Z,82.50
2022-09-24T02:13:48.640Z,82.80
2022-09-24T02:16:23.422Z,82.71
2022-09-24T02:18:56.497Z,82.77
2022-09-24T02:21:26.829Z,82.97
2022-09-24T02:24:00.832Z,83.04
2022-09-24T02:26:29.712Z,83.32
2022-09-24T02:28:59.138Z,83.31
2022-09-24T02:31:32.847Z,83.23
2022-09-24T02:34:25.960Z,83.39
2022-09-24T02:36:59.189Z,83.38
2022-09-24T02:39:28.223Z,83.46
2022-09-24T02:41:56.920Z,83.53
2022-09-24T02:44:25.574Z,83.76
2022-09-24T02:46:55.708Z,83.57
2022-09-24T02:49:23.988Z,83.74
2022-09-24T02:51:52.174Z,83.74
2022-09-24T02:54:21.772Z,83.92
2022-09-24T02:56:50.419Z,83.91
2022-09-24T02:59:19.559Z,83.82
2022-09-24T03:01:48.234Z,84.04
2022-09-24T03:04:18.452Z,84.29
2022-09-24T03:06:46.616Z,84.26
2022-09-24T03:09:15.081Z,84.43
2022-09-24T03:11:43.736Z,84.37
2022-09-24T03:14:12.411Z,84.62
2022-09-24T03:16:40.633Z,84.63
2022-09-24T03:19:09.123Z,84.63
2022-09-24T03:21:38.683Z,84.73
2022-09-24T03:24:07.015Z,84.80
2022-09-24T03:26:35.523Z,84.68
2022-09-24T03:29:04.236Z,84.90
2022-09-24T03:31:31.478Z,85.00
2022-09-24T03:33:59.975Z,85.07
2022-09-24T03:36:28.502Z,84.92
2022-09-24T03:38:58.523Z,85.00
2022-09-24T03:41:28.336Z,84.88
2022-09-24T03:43:56.802Z,84.99
2022-09-24T03:46:29.975Z,85.06
2022-09-24T03:49:00.580Z,84.91
2022-09-24T03:51:29.265Z,85.10
2022-09-24T03:53:58.821Z,85.08
2022-09-24T03:56:27.308Z,85.22
2022-09-24T03:58:56.116Z,85.22
2022-09-24T04:01:24.364Z,85.20
2022-09-24T04:03:54.061Z,85.36
2022-09-24T04:06:25.989Z,85.47
2022-09-24T04:08:55.531Z,85.29
2022-09-24T04:11:25.817Z,85.49
2022-09-24T04:13:54.393Z,85.57
2022-09-24T04:16:22.819Z,85.44
2022-09-24T04:18:51.528Z,85.53
2022-09-24T04:21:20.037Z,85.53
2022-09-24T04:23:48.394Z,85.65
2022-09-24T04:26:17.127Z,85.65
2022-09-24T04:28:46.680Z,85.85
2022-09-24T04:31:14.980Z,85.96
2022-09-24T04:33:43.260Z,85.88
2022-09-24T04:36:11.726Z,85.97
2022-09-24T04:38:40.016Z,85.95
2022-09-24T04:41:09.437Z,85.94
2022-09-24T04:43:37.827Z,86.05
2022-09-24T04:46:08.551Z,85.91
2022-09-24T04:48:38.203Z,85.99
2022-09-24T04:51:07.293Z,85.96
2022-09-24T04:53:37.186Z,86.14
2022-09-24T04:56:06.316Z,86.13
2022-09-24T04:58:34.521Z,86.02
2022-09-24T05:01:04.936Z,86.05
2022-09-24T05:03:34.973Z,86.13
2022-09-24T05:06:03.844Z,86.13
2022-09-24T05:08:32.327Z,86.21
2022-09-24T05:11:02.359Z,85.99
2022-09-24T05:13:30.639Z,86.25
2022-09-24T05:16:00.952Z,86.29
2022-09-24T05:18:29.688Z,86.40
2022-09-24T05:20:59.306Z,86.36
2022-09-24T05:23:29.483Z,86.50
2022-09-24T05:26:15.012Z,86.43
2022-09-24T05:28:43.862Z,86.27
2022-09-24T05:31:12.357Z,86.27
2022-09-24T05:33:40.729Z,86.54
2022-09-24T05:36:10.328Z,86.56
2022-09-24T05:38:41.564Z,86.64
2022-09-24T05:41:10.720Z,86.71
2022-09-24T05:43:38.943Z,86.70
2022-09-24T05:46:08.108Z,86.79
2022-09-24T05:48:36.822Z,86.79
2022-09-24T05:51:05.603Z,86.69
2022-09-24T05:53:35.165Z,86.88
2022-09-24T05:56:03.512Z,86.78
2022-09-24T05:58:32.010Z,86.79
2022-09-24T06:01:01.330Z,86.88
2022-09-24T06:03:31.762Z,86.82
2022-09-24T06:06:02.028Z,86.72
2022-09-24T06:08:32.504Z,86.80
2022-09-24T06:11:02.756Z,86.81
2022-09-24T06:13:31.512Z,86.80
2022-09-24T06:16:02.747Z,86.73
2022-09-24T06:18:31.391Z,86.77
2022-09-24T06:21:03.796Z,86.81
2022-09-24T06:23:32.410Z,87.04
2022-09-24T06:26:02.206Z,86.90
2022-09-24T06:28:30.761Z,86.86
2022-09-24T06:31:01.737Z,86.87
2022-09-24T06:33:30.551Z,86.95
2022-09-24T06:36:02.427Z,86.78
2022-09-24T06:38:31.442Z,86.79
2022-09-24T06:41:03.457Z,86.63
2022-09-24T06:43:33.382Z,86.59
2022-09-24T06:46:03.270Z,86.44
2022-09-24T06:48:32.133Z,86.46
2022-09-24T06:51:00.483Z,86.34
2022-09-24T06:53:28.753Z,86.34
2022-09-24T06:55:59.778Z,86.40
2022-09-24T06:58:29.909Z,86.41
2022-09-24T07:01:01.492Z,86.37
2022-09-24T07:03:32.114Z,86.18
2022-09-24T07:06:03.185Z,86.24
2022-09-24T07:08:31.829Z,86.21
2022-09-24T07:11:00.718Z,86.24
2022-09-24T07:13:30.570Z,85.92
2022-09-24T07:15:58.806Z,85.70
2022-09-24T07:18:27.032Z,85.56
2022-09-24T07:20:56.402Z,85.65
2022-09-24T07:23:26.153Z,85.56
2022-09-24T07:25:57.621Z,85.37
2022-09-24T07:28:26.701Z,84.82
2022-09-24T07:31:00.732Z,84.70
2022-09-24T07:33:29.628Z,84.48
2022-09-24T07:35:58.151Z,84.12
2022-09-24T07:38:26.928Z,84.04
2022-09-24T07:40:59.407Z,84.00
2022-09-24T07:43:29.084Z,83.79
2022-09-24T07:45:58.022Z,83.47
2022-09-24T07:48:27.730Z,83.00
2022-09-24T07:50:55.952Z,82.84
2022-09-24T07:53:24.601Z,82.65
2022-09-24T07:55:52.819Z,82.81
2022-09-24T07:58:21.894Z,82.67
2022-09-24T08:00:50.077Z,82.90
2022-09-24T08:03:18.295Z,82.74
2022-09-24T08:05:48.168Z,82.31
2022-09-24T08:08:16.320Z,81.12
2022-09-24T08:10:45.023Z,80.10
2022-09-24T08:13:13.603Z,79.52
2022-09-24T08:15:41.886Z,78.63
2022-09-24T08:18:10.860Z,78.01
2022-09-24T08:20:40.251Z,77.36
2022-09-24T08:23:11.179Z,76.15
2022-09-24T08:25:39.556Z,75.45
2022-09-24T08:28:10.762Z,75.64
2022-09-24T08:30:40.356Z,75.51
2022-09-24T08:33:08.876Z,75.74
2022-09-24T08:35:38.307Z,75.55
2022-09-24T08:38:06.677Z,75.16
2022-09-24T08:40:40.593Z,74.49
2022-09-24T08:43:26.929Z,74.86
2022-09-24T08:46:16.133Z,74.63
2022-09-24T08:48:51.430Z,74.69
2022-09-24T08:51:23.034Z,74.81
2022-09-24T08:53:59.242Z,75.35
2022-09-24T08:56:33.212Z,75.30
2022-09-24T08:59:05.916Z,75.59
2022-09-24T09:01:44.594Z,75.52
2022-09-24T09:04:26.837Z,75.80
2022-09-24T09:07:09.493Z,75.84
2022-09-24T09:09:47.529Z,75.97
2022-09-24T09:12:23.948Z,76.20
2022-09-24T09:14:58.461Z,75.78
2022-09-24T09:17:42.372Z,75.47
2022-09-24T09:20:18.471Z,75.15
2022-09-24T09:22:49.724Z,75.15
2022-09-24T09:25:25.797Z,75.24
2022-09-24T09:28:02.842Z,74.74
2022-09-24T09:30:43.576Z,73.56
2022-09-24T09:33:33.168Z,72.00
2022-09-24T09:36:28.423Z,70.42
2022-09-24T09:39:09.528Z,68.75
2022-09-24T09:41:47.904Z,67.64
2022-09-24T09:44:23.156Z,66.27
2022-09-24T09:46:58.346Z,64.90
2022-09-24T09:49:32.994Z,63.64
2022-09-24T09:52:05.390Z,62.14
2022-09-24T09:54:43.433Z,62.60
2022-09-24T09:57:18.051Z,61.80
2022-09-24T09:59:51.081Z,61.53
2022-09-24T10:02:27.065Z,61.85
2022-09-24T10:04:58.848Z,61.96
2022-09-24T10:07:27.040Z,62.18
2022-09-24T10:10:05.202Z,63.81
2022-09-24T10:12:33.511Z,63.91
2022-09-24T10:15:06.446Z,64.25
2022-09-24T10:17:38.953Z,64.29
2022-09-24T10:20:15.570Z,63.92
2022-09-24T10:22:51.840Z,64.07
2022-09-24T10:25:26.204Z,63.34
2022-09-24T10:28:17.008Z,63.22
2022-09-24T10:30:59.066Z,64.11
2022-09-24T10:33:28.640Z,64.01
2022-09-24T10:36:07.893Z,64.32
2022-09-24T10:38:36.267Z,63.60
2022-09-24T10:41:25.957Z,63.56
2022-09-24T10:43:56.233Z,63.16
2022-09-24T10:46:47.854Z,63.09
2022-09-24T10:49:31.995Z,62.16
2022-09-24T10:52:13.325Z,61.41
2022-09-24T10:54:57.109Z,60.44
2022-09-24T10:57:32.677Z,59.56
2022-09-24T11:00:12.454Z,58.93
2022-09-24T11:03:25.133Z,58.68
2022-09-24T11:05:57.638Z,57.53
2022-09-24T11:08:50.216Z,57.99
2022-09-24T11:11:32.547Z,56.91
2022-09-24T11:14:17.665Z,57.22
2022-09-24T11:17:08.332Z,58.39
2022-09-24T11:20:05.323Z,56.58
2022-09-24T11:22:44.612Z,56.42
2022-09-24T11:25:32.008Z,55.86
2022-09-24T11:28:23.001Z,55.54
2022-09-24T11:31:06.246Z,55.08
2022-09-24T11:33:58.673Z,54.45
2022-09-24T11:36:46.901Z,55.49
2022-09-24T11:39:44.124Z,56.29
2022-09-24T11:42:25.484Z,56.44
2022-09-24T11:45:47.618Z,57.33
2022-09-24T11:48:46.253Z,57.33
2022-09-24T11:51:29.339Z,56.25
2022-09-24T11:54:07.434Z,54.69
2022-09-24T11:56:43.095Z,53.63
2022-09-24T11:59:20.833Z,53.53
2022-09-24T12:01:55.278Z,53.63
2022-09-24T12:04:29.166Z,54.33
2022-09-24T12:07:06.627Z,54.78
2022-09-24T12:09:42.357Z,55.54
2022-09-24T12:12:15.372Z,55.62
2022-09-24T12:14:51.104Z,55.63
2022-09-24T12:17:25.312Z,55.25
2022-09-24T12:20:00.584Z,55.21
2022-09-24T12:22:31.952Z,54.94
2022-09-24T12:25:02.874Z,54.99
2022-09-24T12:27:36.714Z,54.90
2022-09-24T12:30:40.139Z,54.91
2022-09-24T12:33:15.929Z,54.88
2022-09-24T12:36:04.487Z,55.52
2022-09-24T12:38:38.152Z,55.53
2022-09-24T12:41:32.482Z,55.61
2022-09-24T12:44:12.842Z,55.37
2022-09-24T12:46:43.865Z,55.15
2022-09-24T12:49:26.883Z,55.51
2022-09-24T12:51:57.266Z,55.34
2022-09-24T12:54:30.358Z,55.32
2022-09-24T12:57:14.771Z,55.58
2022-09-24T12:59:52.612Z,55.67
2022-09-24T13:02:23.641Z,55.13
2022-09-24T13:05:27.199Z,54.83
2022-09-24T13:08:01.693Z,54.39
2022-09-24T13:10:32.771Z,54.80
2022-09-24T13:13:02.975Z,55.35
2022-09-24T13:15:37.511Z,55.61
2022-09-24T13:18:24.185Z,56.35
2022-09-24T13:21:03.206Z,56.83
2022-09-24T13:23:44.572Z,57.01
2022-09-24T13:26:28.137Z,57.65
2022-09-24T13:29:00.752Z,57.82
2022-09-24T13:31:44.767Z,58.02
2022-09-24T13:34:23.668Z,58.17
2022-09-24T13:36:58.970Z,58.32
2022-09-24T13:39:36.682Z,57.70
2022-09-24T13:42:16.140Z,57.46
2022-09-24T13:44:48.713Z,57.26
2022-09-24T13:47:28.467Z,57.20
2022-09-24T13:50:08.273Z,56.93
2022-09-24T13:52:42.804Z,56.56
2022-09-24T13:55:20.172Z,56.74
2022-09-24T13:57:50.172Z,56.50
2022-09-24T14:00:24.375Z,56.55
2022-09-24T14:03:02.144Z,57.08
2022-09-24T14:05:35.977Z,57.11
2022-09-24T14:08:08.658Z,57.47
2022-09-24T14:10:37.503Z,57.62
2022-09-24T14:13:22.367Z,57.93
2022-09-24T14:15:58.984Z,58.02
2022-09-24T14:18:29.646Z,58.10
2022-09-24T14:21:06.166Z,58.44
2022-09-24T14:23:40.023Z,58.62
2022-09-24T14:26:13.696Z,58.84
2022-09-24T14:28:42.023Z,59.02
2022-09-24T14:31:11.719Z,59.15
2022-09-24T14:33:41.403Z,59.23
2022-09-24T14:36:13.732Z,59.52
2022-09-24T14:38:57.593Z,59.98
2022-09-24T14:41:30.251Z,60.17
2022-09-24T14:44:03.979Z,60.37
2022-09-24T14:46:38.893Z,60.59
2022-09-24T14:49:19.366Z,60.63
2022-09-24T14:51:56.869Z,60.87
2022-09-24T14:54:33.510Z,60.67
2022-09-24T14:57:13.444Z,60.70
2022-09-24T14:59:42.779Z,60.84
2022-09-24T15:02:20.954Z,60.89
2022-09-24T15:04:52.530Z,61.04
2022-09-24T15:07:25.072Z,61.34
2022-09-24T15:09:56.531Z,61.38
2022-09-24T15:12:31.052Z,61.58
2022-09-24T15:15:02.603Z,61.82
2022-09-24T15:17:34.284Z,61.64
2022-09-24T15:20:05.350Z,61.69
2022-09-24T15:22:33.642Z,61.84
2022-09-24T15:25:02.607Z,61.98
2022-09-24T15:27:33.531Z,62.10
2022-09-24T15:30:07.068Z,62.29
2022-09-24T15:32:36.743Z,62.35
2022-09-24T15:35:08.518Z,62.43
2022-09-24T15:37:40.130Z,62.81
2022-09-24T15:40:20.454Z,63.08
2022-09-24T15:42:48.791Z,63.01
2022-09-24T15:45:19.693Z,63.06
2022-09-24T15:47:49.509Z,63.45
2022-09-24T15:50:18.632Z,63.54
2022-09-24T15:52:53.402Z,63.69
2022-09-24T15:55:23.904Z,63.89
2022-09-24T15:57:53.100Z,64.17
2022-09-24T16:00:23.531Z,64.45
2022-09-24T16:02:57.103Z,64.61
2022-09-24T16:05:26.435Z,64.53
2022-09-24T16:07:54.928Z,64.63
2022-09-24T16:10:23.226Z,65.03
2022-09-24T16:12:51.443Z,65.46
2022-09-24T16:15:20.533Z,65.98
2022-09-24T16:17:50.803Z,66.35
2022-09-24T16:20:20.479Z,66.64
2022-09-24T16:22:48.697Z,66.69
2022-09-24T16:25:17.339Z,67.06
2022-09-24T16:27:45.644Z,67.59
2022-09-24T16:30:14.205Z,67.97
2022-09-24T16:32:42.422Z,68.46
2022-09-24T16:35:13.150Z,68.58
2022-09-24T16:37:42.833Z,69.10
2022-09-24T16:40:12.380Z,69.33
2022-09-24T16:42:41.013Z,69.62
2022-09-24T16:45:12.603Z,70.01
2022-09-24T16:47:41.342Z,70.02
2022-09-24T16:50:10.914Z,70.44
2022-09-24T16:52:40.158Z,70.91
2022-09-24T16:55:10.963Z,71.07
2022-09-24T16:57:39.731Z,71.36
2022-09-24T17:00:10.897Z,71.67
2022-09-24T17:02:40.117Z,72.08
2022-09-24T17:05:09.414Z,72.19
2022-09-24T17:07:37.896Z,72.45
2022-09-24T17:10:16.069Z,73.01
2022-09-24T17:12:48.180Z,73.35
2022-09-24T17:15:20.467Z,73.65
2022-09-24T17:17:50.666Z,74.41
2022-09-24T17:20:20.230Z,74.71
2022-09-24T17:22:49.787Z,75.24
2022-09-24T17:25:19.565Z,75.54
2022-09-24T17:27:47.738Z,75.65
2022-09-24T17:30:16.474Z,75.92
2022-09-24T17:32:44.957Z,76.60
2022-09-24T17:35:14.725Z,76.79
2022-09-24T17:37:43.855Z,76.86
2022-09-24T17:40:12.696Z,77.19
2022-09-24T17:42:45.749Z,77.71
2022-09-24T17:45:14.432Z,77.97
2022-09-24T17:47:57.904Z,78.07
2022-09-24T17:50:26.595Z,78.25
2022-09-24T17:52:55.123Z,78.30
2022-09-24T17:55:23.365Z,78.75
2022-09-24T17:57:52.884Z,78.88
2022-09-24T18:00:21.113Z,78.90
2022-09-24T18:02:49.491Z,78.93
2022-09-24T18:05:17.895Z,78.84
2022-09-24T18:07:46.069Z,79.45
2022-09-24T18:10:17.237Z,79.81
2022-09-24T18:12:45.820Z,80.39
2022-09-24T18:15:15.448Z,81.39
2022-09-24T18:17:44.159Z,82.06
2022-09-24T18:20:12.800Z,82.66
2022-09-24T18:22:40.985Z,82.99
2022-09-24T18:25:11.240Z,83.43
2022-09-24T18:27:39.480Z,83.77
2022-09-24T18:30:11.572Z,84.22
2022-09-24T18:32:41.155Z,84.42
2022-09-24T18:35:10.741Z,84.77
2022-09-24T18:37:39.317Z,84.90
2022-09-24T18:40:10.202Z,85.30
2022-09-24T18:42:38.796Z,85.34
2022-09-24T18:45:08.557Z,85.66
2022-09-24T18:47:38.104Z,85.86
2022-09-24T18:50:09.690Z,85.90
2022-09-24T18:52:38.391Z,86.17
2022-09-24T18:55:08.334Z,86.49
2022-09-24T18:57:37.853Z,86.59
2022-09-24T19:00:28.236Z,86.77
2022-09-24T19:02:57.123Z,86.94
2022-09-24T19:05:26.946Z,87.30
2022-09-24T19:07:55.145Z,87.29
2022-09-24T19:10:23.333Z,87.51
2022-09-24T19:12:54.026Z,87.49
2022-09-24T19:15:22.204Z,87.64
2022-09-24T19:17:52.969Z,87.77
2022-09-24T19:20:21.488Z,87.69
2022-09-24T19:22:59.802Z,87.83
2022-09-24T19:25:32.800Z,87.92
2022-09-24T19:28:01.493Z,87.96
2022-09-24T19:30:29.972Z,87.93
2022-09-24T19:32:59.740Z,87.82
2022-09-24T19:35:28.257Z,87.83
2022-09-24T19:37:57.878Z,87.57
2022-09-24T19:40:26.398Z,87.71
2022-09-24T19:42:54.938Z,87.76
2022-09-24T19:45:23.445Z,87.98
2022-09-24T19:47:51.913Z,88.02
2022-09-24T19:50:20.116Z,88.09
2022-09-24T19:52:48.708Z,88.24
2022-09-24T19:55:20.440Z,88.21
2022-09-24T19:57:50.063Z,88.36
2022-09-24T20:00:18.401Z,88.36
2022-09-24T20:02:46.984Z,88.46
2022-09-24T20:05:15.365Z,88.73
2022-09-24T20:07:45.745Z,88.71
2022-09-24T20:10:14.549Z,88.65
2022-09-24T20:12:46.600Z,88.46
2022-09-24T20:15:14.901Z,88.92
2022-09-24T20:17:43.085Z,89.89
2022-09-24T20:20:11.552Z,90.69
2022-09-24T20:22:39.731Z,91.36
2022-09-24T20:25:08.994Z,92.22
2022-09-24T20:27:51.605Z,93.26
2022-09-24T20:30:23.699Z,94.68
2022-09-24T20:32:52.413Z,95.69
2022-09-24T20:35:21.266Z,96.66
2022-09-24T20:37:49.824Z,97.36
2022-09-24T20:40:18.308Z,98.18
2022-09-24T20:42:47.278Z,98.62
2022-09-24T20:45:16.178Z,99.29
2022-09-24T20:47:49.896Z,100.00
2022-09-24T20:50:18.831Z,100.00
2022-09-24T20:52:47.342Z,100.00
2022-09-24T20:55:15.834Z,100.00
2022-09-24T20:57:44.617Z,100.00
2022-09-24T21:00:15.136Z,100.00
2022-09-24T21:02:44.963Z,100.00
2022-09-24T21:05:13.567Z,100.00
2022-09-24T21:07:42.741Z,100.00
2022-09-24T21:10:13.487Z,100.00
2022-09-24T21:12:41.831Z,100.00
2022-09-24T21:15:13.694Z,100.00
2022-09-24T21:17:54.767Z,100.00
2022-09-24T21:20:33.028Z,100.00
2022-09-24T21:23:01.291Z,100.00
2022-09-24T21:25:52.815Z,100.00
2022-09-24T21:28:18.034Z,100.00
2022-09-24T21:31:03.256Z,100.00
2022-09-24T21:33:32.083Z,100.00
2022-09-24T21:36:02.855Z,100.00
2022-09-24T21:38:31.473Z,100.00
2022-09-24T21:41:01.389Z,100.00
2022-09-24T21:43:34.605Z,100.00
2022-09-24T21:46:05.792Z,100.00
2022-09-24T21:48:35.247Z,100.00
2022-09-24T21:51:07.576Z,100.00
2022-09-24T21:53:36.735Z,100.00
2022-09-24T21:56:06.523Z,100.00
2022-09-24T21:58:34.841Z,100.00
2022-09-24T22:01:05.295Z,100.00
2022-09-24T22:03:34.652Z,100.00
2022-09-24T22:06:05.527Z,100.00
2022-09-24T22:08:33.828Z,100.00
2022-09-24T22:11:04.533Z,100.00
2022-09-24T22:13:34.640Z,100.00
2022-09-24T22:16:03.604Z,100.00
2022-09-24T22:18:33.472Z,100.00
2022-09-24T22:21:10.395Z,100.00
2022-09-24T22:23:39.007Z,100.00
2022-09-24T22:26:09.078Z,100.00
2022-09-24T22:28:38.484Z,100.00
2022-09-24T22:31:09.980Z,100.00
2022-09-24T22:33:56.433Z,100.00
2022-09-24T22:36:27.837Z,100.00
2022-09-24T22:38:57.337Z,100.00
2022-09-24T22:41:26.318Z,100.00
2022-09-24T22:43:54.500Z,100.00
2022-09-24T22:46:27.019Z,100.00
2022-09-24T22:48:56.217Z,100.00
2022-09-24T22:51:28.248Z,100.00
2022-09-24T22:53:57.225Z,100.00
2022-09-24T22:56:27.416Z,100.00
2022-09-24T22:58:58.980Z,100.00
2022-09-24T23:01:31.219Z,100.00
2022-09-24T23:04:01.268Z,100.00
2022-09-24T23:06:32.893Z,100.00
2022-09-24T23:09:01.834Z,100.00
2022-09-24T23:11:32.535Z,100.00
2022-09-24T23:14:03.473Z,100.00
2022-09-24T23:16:34.207Z,100.00
2022-09-24T23:19:06.125Z,100.00
2022-09-24T23:21:36.786Z,100.00
2022-09-24T23:24:08.048Z,100.00
2022-09-24T23:26:36.732Z,100.00
2022-09-24T23:29:06.747Z,100.00
2022-09-24T23:31:37.007Z,100.00
2022-09-24T23:34:07.748Z,100.00
2022-09-24T23:36:37.786Z,100.00
2022-09-24T23:39:06.683Z,100.00
2022-09-24T23:41:35.304Z,100.00
2022-09-24T23:44:04.133Z,100.00
2022-09-24T23:46:33.684Z,100.00
2022-09-24T23:49:02.130Z,100.00
2022-09-24T23:51:30.344Z,100.00
2022-09-24T23:53:59.941Z,100.00
2022-09-24T23:56:28.932Z,100.00
2022-09-24T23:58:57.690Z,100.00
